OCN62G EDDF-LGMK
Flight info
| Callsign | OCN62G |
|---|---|
| Flight time | N/A |
| Altitude | 35000 |
| Route | CINDY8S/18 CINDY Z74 LAMPU DCT NOMBO Y161 MAH DCT VAVOR DCT RADIZ DCT GORPA DCT EVTON DCT SOLGU DCT AKIKA DCT MAVAR DCT BITLA UN137 AGAPU |
| Aircraft | A320/M-SDE2E3FGIJ1LORWXYZ/HB1 |
Departure
| Time | N/A |
|---|---|
| Airport | Frankfurt Main Airport (EDDF) |
Arrival
| Time | 2026-05-09 16:02 |
|---|---|
| Airport | Mykonos Island National Airport (LGMK) |
| Time | Latitude | Longitude | Altitude | Speed | Heading |
|---|---|---|---|---|---|
| 2026-05-09 14:37 | 45.51900 | 15.74560 | 35036 ft | 505 kts | 139° |
| 2026-05-09 14:38 | 45.47087 | 15.81914 | 35048 ft | 505 kts | 138° |
| 2026-05-09 14:38 | 45.42325 | 15.89189 | 35019 ft | 505 kts | 139° |
| 2026-05-09 14:39 | 45.37534 | 15.96484 | 35017 ft | 505 kts | 139° |
| 2026-05-09 14:39 | 45.32730 | 16.03775 | 35026 ft | 505 kts | 139° |
| 2026-05-09 14:40 | 45.27936 | 16.11036 | 35031 ft | 506 kts | 139° |
| 2026-05-09 14:40 | 45.23115 | 16.18310 | 35027 ft | 506 kts | 139° |
| 2026-05-09 14:41 | 45.18307 | 16.25555 | 35014 ft | 506 kts | 139° |
| 2026-05-09 14:41 | 45.13484 | 16.32806 | 35021 ft | 506 kts | 139° |
| 2026-05-09 14:42 | 45.08647 | 16.40055 | 35031 ft | 506 kts | 139° |
| 2026-05-09 14:42 | 45.03797 | 16.47287 | 35033 ft | 506 kts | 139° |
| 2026-05-09 14:43 | 44.98948 | 16.54500 | 35033 ft | 506 kts | 139° |
| 2026-05-09 14:43 | 44.94099 | 16.61706 | 35012 ft | 506 kts | 139° |
| 2026-05-09 14:44 | 44.89245 | 16.68907 | 35026 ft | 506 kts | 139° |
| 2026-05-09 14:44 | 44.84386 | 16.76098 | 35034 ft | 506 kts | 139° |
| 2026-05-09 14:45 | 44.79527 | 16.83285 | 35036 ft | 506 kts | 139° |
| 2026-05-09 14:45 | 44.74661 | 16.90434 | 35040 ft | 506 kts | 139° |
| 2026-05-09 14:46 | 44.69675 | 16.97388 | 35040 ft | 501 kts | 146° |
| 2026-05-09 14:46 | 44.64368 | 17.03729 | 35033 ft | 501 kts | 146° |
| 2026-05-09 14:47 | 44.59100 | 17.10035 | 35041 ft | 501 kts | 146° |
| 2026-05-09 14:47 | 44.53800 | 17.16363 | 35059 ft | 500 kts | 146° |
| 2026-05-09 14:48 | 44.48486 | 17.22682 | 35056 ft | 501 kts | 145° |
| 2026-05-09 14:48 | 44.43166 | 17.28980 | 35032 ft | 501 kts | 146° |
| 2026-05-09 14:49 | 44.37843 | 17.35289 | 35049 ft | 502 kts | 145° |
| 2026-05-09 14:49 | 44.32517 | 17.41600 | 35054 ft | 502 kts | 146° |
| 2026-05-09 14:50 | 44.27186 | 17.47871 | 35062 ft | 501 kts | 145° |
| 2026-05-09 14:50 | 44.21844 | 17.54155 | 35063 ft | 502 kts | 145° |
| 2026-05-09 14:51 | 44.16495 | 17.60426 | 35047 ft | 503 kts | 146° |
| 2026-05-09 14:51 | 44.11140 | 17.66682 | 35064 ft | 503 kts | 145° |
| 2026-05-09 14:52 | 44.05885 | 17.73149 | 35066 ft | 505 kts | 142° |
| 2026-05-09 14:52 | 44.01618 | 17.78698 | 35073 ft | 506 kts | 141° |
| 2026-05-09 14:53 | 43.96496 | 17.85348 | 35062 ft | 505 kts | 142° |
| 2026-05-09 14:53 | 43.91266 | 17.91992 | 35077 ft | 505 kts | 143° |
| 2026-05-09 14:54 | 43.86051 | 17.98511 | 35082 ft | 505 kts | 143° |
| 2026-05-09 14:54 | 43.80880 | 18.04979 | 35092 ft | 505 kts | 142° |
| 2026-05-09 14:55 | 43.75675 | 18.11505 | 35092 ft | 505 kts | 142° |
| 2026-05-09 14:55 | 43.70465 | 18.18030 | 35079 ft | 505 kts | 142° |
| 2026-05-09 14:56 | 43.65258 | 18.24544 | 35087 ft | 504 kts | 143° |
| 2026-05-09 14:56 | 43.60050 | 18.31021 | 35091 ft | 504 kts | 143° |
| 2026-05-09 14:57 | 43.54824 | 18.37491 | 35089 ft | 504 kts | 143° |
| 2026-05-09 14:57 | 43.49618 | 18.43950 | 35100 ft | 504 kts | 143° |
| 2026-05-09 14:58 | 43.44400 | 18.50411 | 35082 ft | 504 kts | 143° |
| 2026-05-09 14:58 | 43.39170 | 18.56848 | 35079 ft | 504 kts | 143° |
| 2026-05-09 14:59 | 43.33939 | 18.63274 | 35086 ft | 504 kts | 143° |
| 2026-05-09 14:59 | 43.28709 | 18.69697 | 35086 ft | 504 kts | 143° |
| 2026-05-09 15:00 | 43.23471 | 18.76107 | 35088 ft | 504 kts | 143° |
| 2026-05-09 15:00 | 43.18267 | 18.82452 | 35081 ft | 505 kts | 143° |
| 2026-05-09 15:01 | 43.10389 | 18.92053 | 35073 ft | 506 kts | 143° |
| 2026-05-09 15:02 | 43.05096 | 18.98483 | 35077 ft | 506 kts | 143° |
| 2026-05-09 15:02 | 42.99861 | 19.04826 | 35061 ft | 506 kts | 143° |
| 2026-05-09 15:03 | 42.94584 | 19.11206 | 35066 ft | 506 kts | 143° |
| 2026-05-09 15:03 | 42.89313 | 19.17552 | 35076 ft | 506 kts | 143° |
| 2026-05-09 15:04 | 42.84030 | 19.23885 | 35080 ft | 506 kts | 143° |
| 2026-05-09 15:06 | 42.62889 | 19.49167 | 35079 ft | 506 kts | 143° |
| 2026-05-09 15:06 | 42.57591 | 19.55453 | 35080 ft | 506 kts | 143° |
| 2026-05-09 15:07 | 42.52274 | 19.61726 | 35080 ft | 506 kts | 144° |
| 2026-05-09 15:07 | 42.46834 | 19.67748 | 35068 ft | 504 kts | 146° |
| 2026-05-09 15:08 | 42.41323 | 19.73608 | 35083 ft | 504 kts | 146° |
| 2026-05-09 15:08 | 42.33068 | 19.82460 | 35089 ft | 504 kts | 145° |
| 2026-05-09 15:10 | 42.11161 | 20.06105 | 35077 ft | 504 kts | 146° |
| 2026-05-09 15:11 | 42.05703 | 20.11956 | 35083 ft | 505 kts | 146° |
| 2026-05-09 15:11 | 42.00205 | 20.17820 | 35071 ft | 505 kts | 146° |
| 2026-05-09 15:12 | 41.94684 | 20.23692 | 35083 ft | 506 kts | 146° |
| 2026-05-09 15:12 | 41.89137 | 20.29587 | 35081 ft | 505 kts | 146° |
| 2026-05-09 15:13 | 41.83661 | 20.35399 | 35086 ft | 506 kts | 146° |
| 2026-05-09 15:13 | 41.78101 | 20.41293 | 35085 ft | 506 kts | 146° |
| 2026-05-09 15:14 | 41.72618 | 20.47092 | 35065 ft | 506 kts | 146° |
| 2026-05-09 15:14 | 41.67082 | 20.52922 | 35078 ft | 506 kts | 146° |
| 2026-05-09 15:15 | 41.61555 | 20.58747 | 35073 ft | 506 kts | 146° |
| 2026-05-09 15:15 | 41.56025 | 20.64596 | 35069 ft | 507 kts | 146° |
| 2026-05-09 15:16 | 41.50494 | 20.70429 | 35052 ft | 507 kts | 146° |
| 2026-05-09 15:16 | 41.44953 | 20.76257 | 35058 ft | 507 kts | 146° |
| 2026-05-09 15:17 | 41.39416 | 20.82064 | 35075 ft | 507 kts | 146° |
| 2026-05-09 15:17 | 41.33864 | 20.87870 | 35075 ft | 507 kts | 146° |
| 2026-05-09 15:18 | 41.28306 | 20.93668 | 35079 ft | 508 kts | 146° |
| 2026-05-09 15:18 | 41.22754 | 20.99453 | 35060 ft | 507 kts | 146° |
| 2026-05-09 15:19 | 41.17196 | 21.05226 | 35075 ft | 508 kts | 146° |
| 2026-05-09 15:19 | 41.11629 | 21.10996 | 35077 ft | 507 kts | 146° |
| 2026-05-09 15:20 | 41.03284 | 21.19630 | 35073 ft | 508 kts | 146° |
| 2026-05-09 15:21 | 40.97708 | 21.25384 | 35060 ft | 508 kts | 146° |
| 2026-05-09 15:21 | 40.92129 | 21.31120 | 35069 ft | 508 kts | 146° |
| 2026-05-09 15:22 | 40.86655 | 21.37063 | 35069 ft | 512 kts | 137° |
| 2026-05-09 15:22 | 40.81774 | 21.43822 | 35075 ft | 512 kts | 136° |
| 2026-05-09 15:23 | 40.76822 | 21.50652 | 35081 ft | 512 kts | 136° |
| 2026-05-09 15:23 | 40.71923 | 21.57383 | 35082 ft | 512 kts | 136° |
| 2026-05-09 15:24 | 40.66989 | 21.64148 | 35083 ft | 511 kts | 136° |
| 2026-05-09 15:24 | 40.62062 | 21.70898 | 35083 ft | 511 kts | 136° |
| 2026-05-09 15:25 | 40.57125 | 21.77646 | 35079 ft | 511 kts | 136° |
| 2026-05-09 15:25 | 40.52182 | 21.84362 | 35084 ft | 512 kts | 136° |
| 2026-05-09 15:26 | 40.44761 | 21.94449 | 35056 ft | 512 kts | 136° |
| 2026-05-09 15:26 | 40.39815 | 22.01161 | 35066 ft | 512 kts | 136° |
| 2026-05-09 15:27 | 40.34891 | 22.07825 | 35070 ft | 512 kts | 136° |
| 2026-05-09 15:27 | 40.29932 | 22.14511 | 35078 ft | 512 kts | 136° |
| 2026-05-09 15:28 | 40.24952 | 22.21199 | 35062 ft | 513 kts | 136° |
| 2026-05-09 15:28 | 40.19976 | 22.27888 | 35038 ft | 514 kts | 136° |
| 2026-05-09 15:29 | 40.14991 | 22.34579 | 35037 ft | 513 kts | 136° |
| 2026-05-09 15:29 | 40.10002 | 22.41260 | 35041 ft | 513 kts | 136° |
| 2026-05-09 15:30 | 40.05012 | 22.47912 | 35045 ft | 513 kts | 136° |
| 2026-05-09 15:30 | 40.00008 | 22.54565 | 35036 ft | 513 kts | 136° |
| 2026-05-09 15:31 | 39.95004 | 22.61202 | 35021 ft | 513 kts | 136° |
| 2026-05-09 15:31 | 39.89994 | 22.67846 | 34995 ft | 514 kts | 136° |
| 2026-05-09 15:32 | 39.84990 | 22.74491 | 34996 ft | 514 kts | 136° |
| 2026-05-09 15:32 | 39.79967 | 22.81123 | 34998 ft | 514 kts | 137° |
| 2026-05-09 15:33 | 39.74928 | 22.87737 | 35001 ft | 514 kts | 137° |
| 2026-05-09 15:33 | 39.69895 | 22.94341 | 35005 ft | 515 kts | 137° |
| 2026-05-09 15:34 | 39.64852 | 23.00950 | 35007 ft | 515 kts | 137° |
| 2026-05-09 15:34 | 39.59817 | 23.07549 | 34995 ft | 515 kts | 137° |
| 2026-05-09 15:35 | 39.54768 | 23.14143 | 35019 ft | 515 kts | 137° |
| 2026-05-09 15:35 | 39.49711 | 23.20716 | 35012 ft | 516 kts | 137° |
| 2026-05-09 15:36 | 39.44672 | 23.27253 | 35014 ft | 516 kts | 137° |
| 2026-05-09 15:36 | 39.39608 | 23.33825 | 35013 ft | 516 kts | 137° |
| 2026-05-09 15:37 | 39.34533 | 23.40403 | 34982 ft | 516 kts | 137° |
| 2026-05-09 15:37 | 39.29454 | 23.46962 | 34990 ft | 516 kts | 137° |
| 2026-05-09 15:38 | 39.24370 | 23.53515 | 34987 ft | 517 kts | 137° |
| 2026-05-09 15:38 | 39.19264 | 23.60059 | 34988 ft | 517 kts | 139° |
| 2026-05-09 15:39 | 39.13672 | 23.65769 | 34985 ft | 513 kts | 148° |
| 2026-05-09 15:39 | 39.07919 | 23.71202 | 34728 ft | 510 kts | 148° |
| 2026-05-09 15:40 | 39.05074 | 23.73890 | 34459 ft | 507 kts | 147° |
| 2026-05-09 15:40 | 39.02235 | 23.76574 | 34231 ft | 504 kts | 148° |
| 2026-05-09 15:40 | 38.99410 | 23.79240 | 33997 ft | 503 kts | 148° |
| 2026-05-09 15:40 | 38.96588 | 23.81898 | 33731 ft | 502 kts | 148° |
| 2026-05-09 15:41 | 38.93774 | 23.84546 | 33460 ft | 500 kts | 148° |
| 2026-05-09 15:41 | 38.90973 | 23.87182 | 33200 ft | 498 kts | 148° |
| 2026-05-09 15:41 | 38.89121 | 23.88925 | 33020 ft | 497 kts | 148° |
| 2026-05-09 15:41 | 38.86340 | 23.91543 | 32758 ft | 495 kts | 148° |
| 2026-05-09 15:42 | 38.83567 | 23.94152 | 32500 ft | 493 kts | 148° |
| 2026-05-09 15:42 | 38.79912 | 23.97584 | 31802 ft | 491 kts | 148° |
| 2026-05-09 15:42 | 38.77159 | 24.00166 | 31257 ft | 490 kts | 148° |
| 2026-05-09 15:42 | 38.74412 | 24.02736 | 30683 ft | 489 kts | 148° |
| 2026-05-09 15:43 | 38.72554 | 24.04469 | 30293 ft | 489 kts | 147° |
| 2026-05-09 15:43 | 38.69807 | 24.07030 | 29735 ft | 488 kts | 147° |
| 2026-05-09 15:43 | 38.67071 | 24.09580 | 29138 ft | 486 kts | 148° |
| 2026-05-09 15:43 | 38.64347 | 24.12118 | 28626 ft | 482 kts | 148° |
| 2026-05-09 15:44 | 38.61647 | 24.14631 | 28080 ft | 478 kts | 148° |
| 2026-05-09 15:44 | 38.58966 | 24.17123 | 27552 ft | 475 kts | 148° |
| 2026-05-09 15:44 | 38.56303 | 24.19597 | 27018 ft | 472 kts | 147° |
| 2026-05-09 15:44 | 38.53659 | 24.22055 | 26589 ft | 466 kts | 147° |
| 2026-05-09 15:45 | 38.51039 | 24.24492 | 25935 ft | 466 kts | 148° |
| 2026-05-09 15:45 | 38.48432 | 24.26917 | 25524 ft | 461 kts | 148° |
| 2026-05-09 15:45 | 38.45838 | 24.29326 | 24984 ft | 459 kts | 148° |
| 2026-05-09 15:45 | 38.43305 | 24.31673 | 24593 ft | 453 kts | 148° |
| 2026-05-09 15:46 | 38.40678 | 24.33840 | 24127 ft | 447 kts | 154° |
| 2026-05-09 15:46 | 38.38013 | 24.35847 | 23678 ft | 443 kts | 154° |
| 2026-05-09 15:46 | 38.35370 | 24.37841 | 23180 ft | 440 kts | 154° |
| 2026-05-09 15:46 | 38.32751 | 24.39822 | 22761 ft | 434 kts | 153° |
| 2026-05-09 15:47 | 38.30180 | 24.41770 | 22402 ft | 427 kts | 154° |
| 2026-05-09 15:47 | 38.27643 | 24.43689 | 21985 ft | 422 kts | 154° |
| 2026-05-09 15:47 | 38.25130 | 24.45586 | 21483 ft | 419 kts | 154° |
| 2026-05-09 15:47 | 38.22622 | 24.47474 | 21013 ft | 417 kts | 154° |
| 2026-05-09 15:48 | 38.20149 | 24.49333 | 20357 ft | 410 kts | 155° |
| 2026-05-09 15:48 | 38.17713 | 24.51163 | 19676 ft | 403 kts | 155° |
| 2026-05-09 15:48 | 38.15357 | 24.52941 | 19398 ft | 385 kts | 155° |
| 2026-05-09 15:48 | 38.13084 | 24.54657 | 19160 ft | 377 kts | 155° |
| 2026-05-09 15:49 | 38.10830 | 24.56348 | 18748 ft | 374 kts | 155° |
| 2026-05-09 15:49 | 38.08596 | 24.58016 | 18293 ft | 372 kts | 155° |
| 2026-05-09 15:49 | 38.06366 | 24.59678 | 17791 ft | 371 kts | 155° |
| 2026-05-09 15:49 | 38.04138 | 24.61336 | 17353 ft | 370 kts | 155° |
| 2026-05-09 15:50 | 38.01922 | 24.62986 | 16911 ft | 369 kts | 155° |
| 2026-05-09 15:50 | 37.99706 | 24.64642 | 16466 ft | 368 kts | 155° |
| 2026-05-09 15:50 | 37.97502 | 24.66290 | 16030 ft | 367 kts | 154° |
| 2026-05-09 15:50 | 37.95303 | 24.67931 | 15605 ft | 367 kts | 154° |
| 2026-05-09 15:51 | 37.93112 | 24.69567 | 15159 ft | 366 kts | 154° |
| 2026-05-09 15:51 | 37.90928 | 24.71200 | 14802 ft | 364 kts | 154° |
| 2026-05-09 15:51 | 37.88750 | 24.72825 | 14461 ft | 360 kts | 154° |
| 2026-05-09 15:51 | 37.86577 | 24.74444 | 14017 ft | 360 kts | 154° |
| 2026-05-09 15:52 | 37.82334 | 24.77607 | 12997 ft | 349 kts | 154° |
| 2026-05-09 15:52 | 37.80266 | 24.79147 | 12544 ft | 340 kts | 154° |
| 2026-05-09 15:52 | 37.78260 | 24.80642 | 12159 ft | 329 kts | 154° |
| 2026-05-09 15:53 | 37.76311 | 24.82092 | 11758 ft | 321 kts | 154° |
| 2026-05-09 15:53 | 37.74437 | 24.83483 | 11372 ft | 313 kts | 154° |
| 2026-05-09 15:53 | 37.72569 | 24.84865 | 10984 ft | 312 kts | 154° |
| 2026-05-09 15:53 | 37.70690 | 24.86249 | 10586 ft | 313 kts | 153° |
| 2026-05-09 15:54 | 37.68816 | 24.87634 | 10315 ft | 308 kts | 153° |
| 2026-05-09 15:54 | 37.66980 | 24.88994 | 10022 ft | 305 kts | 153° |
| 2026-05-09 15:54 | 37.65156 | 24.90342 | 9657 ft | 304 kts | 153° |
| 2026-05-09 15:54 | 37.63338 | 24.91684 | 9286 ft | 302 kts | 153° |
| 2026-05-09 15:55 | 37.61529 | 24.93017 | 8915 ft | 300 kts | 153° |
| 2026-05-09 15:55 | 37.59731 | 24.94341 | 8533 ft | 299 kts | 153° |
| 2026-05-09 15:55 | 37.57946 | 24.95657 | 8151 ft | 297 kts | 152° |
| 2026-05-09 15:55 | 37.56162 | 24.96975 | 7770 ft | 296 kts | 152° |
| 2026-05-09 15:56 | 37.54397 | 24.98278 | 7390 ft | 294 kts | 152° |
| 2026-05-09 15:56 | 37.52635 | 24.99574 | 7016 ft | 292 kts | 152° |
| 2026-05-09 15:56 | 37.50905 | 25.00848 | 6872 ft | 281 kts | 152° |
| 2026-05-09 15:56 | 37.49407 | 25.02350 | 6417 ft | 278 kts | 131° |
| 2026-05-09 15:57 | 37.48547 | 25.04502 | 6013 ft | 276 kts | 106° |
| 2026-05-09 15:57 | 37.48443 | 25.06934 | 5281 ft | 284 kts | 80° |
| 2026-05-09 15:57 | 37.48963 | 25.09339 | 4542 ft | 288 kts | 75° |
| 2026-05-09 15:57 | 37.49529 | 25.11766 | 3805 ft | 289 kts | 76° |
| 2026-05-09 15:58 | 37.50093 | 25.14195 | 3187 ft | 286 kts | 76° |
| 2026-05-09 15:58 | 37.50626 | 25.16500 | 3120 ft | 261 kts | 76° |
| 2026-05-09 15:58 | 37.51110 | 25.18604 | 3051 ft | 240 kts | 77° |
| 2026-05-09 15:58 | 37.51555 | 25.20556 | 2964 ft | 225 kts | 77° |
| 2026-05-09 15:59 | 37.51976 | 25.22414 | 2873 ft | 218 kts | 77° |
| 2026-05-09 15:59 | 37.52380 | 25.24194 | 2800 ft | 204 kts | 77° |
| 2026-05-09 15:59 | 37.52630 | 25.25888 | 2677 ft | 191 kts | 96° |
| 2026-05-09 15:59 | 37.52336 | 25.27466 | 2474 ft | 183 kts | 121° |
| 2026-05-09 16:00 | 37.51606 | 25.28724 | 2239 ft | 175 kts | 139° |
| 2026-05-09 16:00 | 37.51306 | 25.29074 | 2153 ft | 173 kts | 144° |
| 2026-05-09 16:00 | 37.49711 | 25.30474 | 1765 ft | 163 kts | 149° |
| 2026-05-09 16:00 | 37.48811 | 25.31252 | 1545 ft | 150 kts | 149° |
| 2026-05-09 16:01 | 37.47971 | 25.31977 | 1315 ft | 144 kts | 148° |
| 2026-05-09 16:01 | 37.47161 | 25.32679 | 1091 ft | 142 kts | 147° |
| 2026-05-09 16:01 | 37.46336 | 25.33392 | 899 ft | 143 kts | 146° |
| 2026-05-09 16:01 | 37.45472 | 25.33986 | 679 ft | 140 kts | 161° |
| 2026-05-09 16:02 | 37.44572 | 25.34355 | 482 ft | 136 kts | 161° |
| 2026-05-09 16:02 | 37.43450 | 25.34849 | 410 ft | 9 kts | 160° |
| 2026-05-09 16:02 | 37.43403 | 25.34842 | 411 ft | 6 kts | 232° |
| 2026-05-09 16:03 | 37.43410 | 25.34793 | 406 ft | 7 kts | 293° |
| 2026-05-09 16:03 | 37.43429 | 25.34753 | 408 ft | 4 kts | 312° |
| 2026-05-09 16:03 | 37.43451 | 25.34735 | 408 ft | 4 kts | 333° |
| 2026-05-09 16:03 | 37.43473 | 25.34725 | 408 ft | 3 kts | 339° |
| 2026-05-09 16:04 | 37.43473 | 25.34697 | 407 ft | 3 kts | 245° |
| 2026-05-09 16:04 | 37.43468 | 25.34675 | 407 ft | 2 kts | 251° |
| 2026-05-09 16:04 | 37.43466 | 25.34668 | 404 ft | 2 kts | 251° |
| 2026-05-09 16:04 | 37.43463 | 25.34657 | 406 ft | 0 kts | 251° |